sensor_id;sensor_type;location;lat;lon;timestamp;P1;durP1;ratioP1;P2;durP2;ratioP2
10414;SDS011;5254;47.696;9.138;2022-08-02T00:00:59;5.68;;;3.80;;
10414;SDS011;5254;47.696;9.138;2022-08-02T00:03:25;6.45;;;4.03;;
10414;SDS011;5254;47.696;9.138;2022-08-02T00:05:50;5.43;;;3.70;;
10414;SDS011;5254;47.696;9.138;2022-08-02T00:08:16;6.03;;;3.92;;
10414;SDS011;5254;47.696;9.138;2022-08-02T00:10:42;5.55;;;4.00;;
10414;SDS011;5254;47.696;9.138;2022-08-02T00:13:08;7.00;;;4.30;;
10414;SDS011;5254;47.696;9.138;2022-08-02T00:15:33;5.30;;;3.40;;
10414;SDS011;5254;47.696;9.138;2022-08-02T00:17:59;7.28;;;4.05;;
10414;SDS011;5254;47.696;9.138;2022-08-02T00:20:25;6.68;;;3.60;;
10414;SDS011;5254;47.696;9.138;2022-08-02T00:22:50;7.60;;;4.40;;
10414;SDS011;5254;47.696;9.138;2022-08-02T00:25:16;5.45;;;3.53;;
10414;SDS011;5254;47.696;9.138;2022-08-02T00:27:42;6.57;;;4.28;;
10414;SDS011;5254;47.696;9.138;2022-08-02T00:30:07;5.60;;;3.75;;
10414;SDS011;5254;47.696;9.138;2022-08-02T00:32:33;7.15;;;4.55;;
10414;SDS011;5254;47.696;9.138;2022-08-02T00:34:59;7.20;;;3.55;;
10414;SDS011;5254;47.696;9.138;2022-08-02T00:37:25;7.85;;;3.97;;
10414;SDS011;5254;47.696;9.138;2022-08-02T00:39:50;5.10;;;3.50;;
10414;SDS011;5254;47.696;9.138;2022-08-02T00:42:16;6.82;;;4.28;;
10414;SDS011;5254;47.696;9.138;2022-08-02T00:44:42;5.07;;;3.30;;
10414;SDS011;5254;47.696;9.138;2022-08-02T00:47:08;6.68;;;3.80;;
10414;SDS011;5254;47.696;9.138;2022-08-02T00:49:33;4.80;;;3.20;;
10414;SDS011;5254;47.696;9.138;2022-08-02T00:51:59;6.40;;;4.30;;
10414;SDS011;5254;47.696;9.138;2022-08-02T00:54:26;4.90;;;3.38;;
10414;SDS011;5254;47.696;9.138;2022-08-02T00:56:51;6.90;;;3.60;;
10414;SDS011;5254;47.696;9.138;2022-08-02T00:59:17;4.93;;;3.30;;
10414;SDS011;5254;47.696;9.138;2022-08-02T01:01:43;6.20;;;3.78;;
10414;SDS011;5254;47.696;9.138;2022-08-02T01:04:09;5.22;;;3.42;;
10414;SDS011;5254;47.696;9.138;2022-08-02T01:06:37;6.00;;;3.70;;
10414;SDS011;5254;47.696;9.138;2022-08-02T01:09:05;4.53;;;2.92;;
10414;SDS011;5254;47.696;9.138;2022-08-02T01:11:31;6.28;;;3.47;;
10414;SDS011;5254;47.696;9.138;2022-08-02T01:13:59;5.28;;;3.22;;
10414;SDS011;5254;47.696;9.138;2022-08-02T01:16:32;6.30;;;3.63;;
10414;SDS011;5254;47.696;9.138;2022-08-02T01:30:14;5.30;;;3.20;;
10414;SDS011;5254;47.696;9.138;2022-08-02T01:32:42;6.93;;;3.80;;
10414;SDS011;5254;47.696;9.138;2022-08-02T01:35:14;9.10;;;3.40;;
10414;SDS011;5254;47.696;9.138;2022-08-02T01:40:21;5.25;;;2.90;;
10414;SDS011;5254;47.696;9.138;2022-08-02T01:42:53;6.53;;;3.42;;
10414;SDS011;5254;47.696;9.138;2022-08-02T01:45:22;4.95;;;3.22;;
10414;SDS011;5254;47.696;9.138;2022-08-02T01:47:50;6.03;;;3.38;;
10414;SDS011;5254;47.696;9.138;2022-08-02T01:50:20;5.15;;;2.85;;
10414;SDS011;5254;47.696;9.138;2022-08-02T01:52:50;6.53;;;3.50;;
10414;SDS011;5254;47.696;9.138;2022-08-02T01:55:21;4.82;;;2.85;;
10414;SDS011;5254;47.696;9.138;2022-08-02T01:57:56;5.75;;;3.42;;
10414;SDS011;5254;47.696;9.138;2022-08-02T02:00:24;4.18;;;2.70;;
10414;SDS011;5254;47.696;9.138;2022-08-02T02:02:52;6.03;;;3.00;;
10414;SDS011;5254;47.696;9.138;2022-08-02T02:05:21;4.28;;;2.75;;
10414;SDS011;5254;47.696;9.138;2022-08-02T02:07:50;5.30;;;3.40;;
10414;SDS011;5254;47.696;9.138;2022-08-02T02:10:20;4.40;;;2.88;;
10414;SDS011;5254;47.696;9.138;2022-08-02T02:12:51;5.30;;;3.53;;
10414;SDS011;5254;47.696;9.138;2022-08-02T02:15:18;4.22;;;2.80;;
10414;SDS011;5254;47.696;9.138;2022-08-02T02:17:47;6.00;;;3.17;;
10414;SDS011;5254;47.696;9.138;2022-08-02T02:20:16;4.40;;;2.70;;
10414;SDS011;5254;47.696;9.138;2022-08-02T02:22:44;8.23;;;3.40;;
10414;SDS011;5254;47.696;9.138;2022-08-02T02:25:11;4.63;;;2.78;;
10414;SDS011;5254;47.696;9.138;2022-08-02T02:27:39;6.82;;;3.35;;
10414;SDS011;5254;47.696;9.138;2022-08-02T02:30:10;4.38;;;2.70;;
10414;SDS011;5254;47.696;9.138;2022-08-02T02:32:36;5.35;;;3.22;;
10414;SDS011;5254;47.696;9.138;2022-08-02T02:35:05;4.65;;;2.83;;
10414;SDS011;5254;47.696;9.138;2022-08-02T02:37:34;4.90;;;3.35;;
10414;SDS011;5254;47.696;9.138;2022-08-02T02:40:02;4.30;;;2.70;;
10414;SDS011;5254;47.696;9.138;2022-08-02T02:42:29;5.30;;;3.50;;
10414;SDS011;5254;47.696;9.138;2022-08-02T02:44:57;4.03;;;2.80;;
10414;SDS011;5254;47.696;9.138;2022-08-02T02:47:24;4.75;;;2.80;;
10414;SDS011;5254;47.696;9.138;2022-08-02T02:49:53;5.50;;;3.13;;
10414;SDS011;5254;47.696;9.138;2022-08-02T02:52:21;4.50;;;2.60;;
10414;SDS011;5254;47.696;9.138;2022-08-02T02:54:48;5.82;;;3.40;;
10414;SDS011;5254;47.696;9.138;2022-08-02T02:57:15;6.43;;;3.50;;
10414;SDS011;5254;47.696;9.138;2022-08-02T02:59:42;5.40;;;2.80;;
10414;SDS011;5254;47.696;9.138;2022-08-02T03:02:09;6.68;;;2.95;;
10414;SDS011;5254;47.696;9.138;2022-08-02T03:04:35;4.15;;;2.70;;
10414;SDS011;5254;47.696;9.138;2022-08-02T03:07:03;4.95;;;3.03;;
10414;SDS011;5254;47.696;9.138;2022-08-02T03:09:29;4.63;;;2.60;;
10414;SDS011;5254;47.696;9.138;2022-08-02T03:11:55;5.75;;;3.20;;
10414;SDS011;5254;47.696;9.138;2022-08-02T03:14:21;6.15;;;2.90;;
10414;SDS011;5254;47.696;9.138;2022-08-02T03:16:48;5.85;;;3.10;;
10414;SDS011;5254;47.696;9.138;2022-08-02T03:19:16;6.32;;;2.70;;
10414;SDS011;5254;47.696;9.138;2022-08-02T03:21:43;6.35;;;3.28;;
10414;SDS011;5254;47.696;9.138;2022-08-02T03:24:09;5.60;;;2.90;;
10414;SDS011;5254;47.696;9.138;2022-08-02T03:26:36;5.35;;;3.10;;
10414;SDS011;5254;47.696;9.138;2022-08-02T03:29:02;11.57;;;10.50;;
10414;SDS011;5254;47.696;9.138;2022-08-02T03:31:28;7.88;;;3.83;;
10414;SDS011;5254;47.696;9.138;2022-08-02T03:33:54;4.35;;;2.80;;
10414;SDS011;5254;47.696;9.138;2022-08-02T03:36:22;6.10;;;2.83;;
10414;SDS011;5254;47.696;9.138;2022-08-02T03:38:52;4.90;;;2.60;;
10414;SDS011;5254;47.696;9.138;2022-08-02T03:41:19;6.97;;;3.30;;
10414;SDS011;5254;47.696;9.138;2022-08-02T03:43:47;7.60;;;3.03;;
10414;SDS011;5254;47.696;9.138;2022-08-02T03:46:15;6.25;;;3.00;;
10414;SDS011;5254;47.696;9.138;2022-08-02T03:48:42;4.72;;;2.78;;
10414;SDS011;5254;47.696;9.138;2022-08-02T03:51:09;5.85;;;3.20;;
10414;SDS011;5254;47.696;9.138;2022-08-02T03:53:35;4.43;;;2.65;;
10414;SDS011;5254;47.696;9.138;2022-08-02T03:56:02;6.05;;;3.13;;
10414;SDS011;5254;47.696;9.138;2022-08-02T03:58:29;4.85;;;2.72;;
10414;SDS011;5254;47.696;9.138;2022-08-02T04:00:55;6.32;;;3.10;;
10414;SDS011;5254;47.696;9.138;2022-08-02T04:03:21;5.20;;;2.90;;
10414;SDS011;5254;47.696;9.138;2022-08-02T04:05:47;5.28;;;3.20;;
10414;SDS011;5254;47.696;9.138;2022-08-02T04:08:13;9.05;;;3.28;;
10414;SDS011;5254;47.696;9.138;2022-08-02T04:10:39;5.55;;;3.45;;
10414;SDS011;5254;47.696;9.138;2022-08-02T04:13:25;4.07;;;2.85;;
10414;SDS011;5254;47.696;9.138;2022-08-02T04:15:56;7.55;;;3.70;;
10414;SDS011;5254;47.696;9.138;2022-08-02T04:18:29;4.97;;;3.20;;
10414;SDS011;5254;47.696;9.138;2022-08-02T04:21:01;6.43;;;3.40;;
10414;SDS011;5254;47.696;9.138;2022-08-02T04:23:30;5.22;;;2.85;;
10414;SDS011;5254;47.696;9.138;2022-08-02T04:25:59;5.20;;;2.95;;
10414;SDS011;5254;47.696;9.138;2022-08-02T04:28:26;4.57;;;2.90;;
10414;SDS011;5254;47.696;9.138;2022-08-02T04:30:53;8.23;;;3.65;;
10414;SDS011;5254;47.696;9.138;2022-08-02T04:33:19;5.72;;;3.00;;
10414;SDS011;5254;47.696;9.138;2022-08-02T04:35:45;6.28;;;3.75;;
10414;SDS011;5254;47.696;9.138;2022-08-02T04:38:12;4.32;;;2.70;;
10414;SDS011;5254;47.696;9.138;2022-08-02T04:40:38;4.93;;;3.33;;
10414;SDS011;5254;47.696;9.138;2022-08-02T04:43:04;4.47;;;3.03;;
10414;SDS011;5254;47.696;9.138;2022-08-02T04:45:30;6.63;;;3.58;;
10414;SDS011;5254;47.696;9.138;2022-08-02T04:47:56;6.78;;;3.33;;
10414;SDS011;5254;47.696;9.138;2022-08-02T04:50:22;7.00;;;3.75;;
10414;SDS011;5254;47.696;9.138;2022-08-02T04:52:47;6.32;;;3.15;;
10414;SDS011;5254;47.696;9.138;2022-08-02T04:55:13;6.28;;;3.53;;
10414;SDS011;5254;47.696;9.138;2022-08-02T04:57:39;5.90;;;3.03;;
10414;SDS011;5254;47.696;9.138;2022-08-02T05:00:20;6.38;;;3.80;;
10414;SDS011;5254;47.696;9.138;2022-08-02T05:02:46;6.80;;;3.35;;
10414;SDS011;5254;47.696;9.138;2022-08-02T05:05:13;7.05;;;3.97;;
10414;SDS011;5254;47.696;9.138;2022-08-02T05:07:39;7.93;;;4.72;;
10414;SDS011;5254;47.696;9.138;2022-08-02T05:10:05;6.97;;;4.53;;
10414;SDS011;5254;47.696;9.138;2022-08-02T05:12:30;6.55;;;3.88;;
10414;SDS011;5254;47.696;9.138;2022-08-02T05:14:56;9.07;;;4.90;;
10414;SDS011;5254;47.696;9.138;2022-08-02T05:17:22;8.48;;;4.28;;
10414;SDS011;5254;47.696;9.138;2022-08-02T05:19:47;9.13;;;4.47;;
10414;SDS011;5254;47.696;9.138;2022-08-02T05:22:13;7.22;;;4.10;;
10414;SDS011;5254;47.696;9.138;2022-08-02T05:24:39;7.00;;;4.68;;
10414;SDS011;5254;47.696;9.138;2022-08-02T05:27:04;6.72;;;3.90;;
10414;SDS011;5254;47.696;9.138;2022-08-02T05:29:30;7.10;;;4.32;;
10414;SDS011;5254;47.696;9.138;2022-08-02T05:31:56;6.20;;;4.10;;
10414;SDS011;5254;47.696;9.138;2022-08-02T05:34:21;6.60;;;4.32;;
10414;SDS011;5254;47.696;9.138;2022-08-02T05:36:47;6.93;;;4.45;;
10414;SDS011;5254;47.696;9.138;2022-08-02T05:39:13;7.53;;;4.60;;
10414;SDS011;5254;47.696;9.138;2022-08-02T05:41:38;5.60;;;3.58;;
10414;SDS011;5254;47.696;9.138;2022-08-02T05:44:04;6.90;;;4.65;;
10414;SDS011;5254;47.696;9.138;2022-08-02T05:46:29;8.80;;;3.97;;
10414;SDS011;5254;47.696;9.138;2022-08-02T05:48:55;6.20;;;4.07;;
10414;SDS011;5254;47.696;9.138;2022-08-02T05:51:22;7.28;;;4.57;;
10414;SDS011;5254;47.696;9.138;2022-08-02T05:54:13;6.25;;;3.83;;
10414;SDS011;5254;47.696;9.138;2022-08-02T06:02:01;6.68;;;3.67;;
10414;SDS011;5254;47.696;9.138;2022-08-02T06:07:20;6.75;;;3.78;;
10414;SDS011;5254;47.696;9.138;2022-08-02T06:09:48;6.68;;;4.30;;
10414;SDS011;5254;47.696;9.138;2022-08-02T06:12:15;5.07;;;3.50;;
10414;SDS011;5254;47.696;9.138;2022-08-02T06:14:42;6.20;;;3.85;;
10414;SDS011;5254;47.696;9.138;2022-08-02T06:17:08;5.47;;;3.70;;
10414;SDS011;5254;47.696;9.138;2022-08-02T06:19:35;4.88;;;3.40;;
10414;SDS011;5254;47.696;9.138;2022-08-02T06:22:03;7.30;;;3.70;;
10414;SDS011;5254;47.696;9.138;2022-08-02T06:24:45;6.30;;;3.53;;
10414;SDS011;5254;47.696;9.138;2022-08-02T06:27:14;7.22;;;3.72;;
10414;SDS011;5254;47.696;9.138;2022-08-02T06:29:40;6.25;;;3.00;;
10414;SDS011;5254;47.696;9.138;2022-08-02T06:32:07;7.45;;;3.63;;
10414;SDS011;5254;47.696;9.138;2022-08-02T06:34:39;4.90;;;3.00;;
10414;SDS011;5254;47.696;9.138;2022-08-02T06:37:13;6.15;;;3.30;;
10414;SDS011;5254;47.696;9.138;2022-08-02T06:40:13;5.85;;;3.40;;
10414;SDS011;5254;47.696;9.138;2022-08-02T06:42:55;6.68;;;3.30;;
10414;SDS011;5254;47.696;9.138;2022-08-02T06:45:25;4.05;;;2.75;;
10414;SDS011;5254;47.696;9.138;2022-08-02T06:47:51;5.07;;;3.30;;
10414;SDS011;5254;47.696;9.138;2022-08-02T06:50:18;5.22;;;3.10;;
10414;SDS011;5254;47.696;9.138;2022-08-02T06:52:44;4.97;;;3.30;;
10414;SDS011;5254;47.696;9.138;2022-08-02T06:55:10;5.50;;;3.22;;
10414;SDS011;5254;47.696;9.138;2022-08-02T06:57:35;6.93;;;3.05;;
10414;SDS011;5254;47.696;9.138;2022-08-02T07:00:02;5.88;;;3.30;;
10414;SDS011;5254;47.696;9.138;2022-08-02T07:02:33;5.50;;;4.10;;
10414;SDS011;5254;47.696;9.138;2022-08-02T07:04:59;6.18;;;3.55;;
10414;SDS011;5254;47.696;9.138;2022-08-02T07:07:25;5.50;;;3.30;;
10414;SDS011;5254;47.696;9.138;2022-08-02T07:09:52;5.68;;;3.05;;
10414;SDS011;5254;47.696;9.138;2022-08-02T07:12:18;4.95;;;3.25;;
10414;SDS011;5254;47.696;9.138;2022-08-02T07:14:44;5.57;;;3.10;;
10414;SDS011;5254;47.696;9.138;2022-08-02T07:17:10;4.90;;;3.10;;
10414;SDS011;5254;47.696;9.138;2022-08-02T07:19:37;4.70;;;3.05;;
10414;SDS011;5254;47.696;9.138;2022-08-02T07:22:02;6.60;;;3.30;;
10414;SDS011;5254;47.696;9.138;2022-08-02T07:24:29;5.57;;;3.10;;
10414;SDS011;5254;47.696;9.138;2022-08-02T07:26:54;4.80;;;2.60;;
10414;SDS011;5254;47.696;9.138;2022-08-02T07:29:21;5.05;;;3.13;;
10414;SDS011;5254;47.696;9.138;2022-08-02T07:31:46;4.40;;;2.70;;
10414;SDS011;5254;47.696;9.138;2022-08-02T07:34:12;5.63;;;3.10;;
10414;SDS011;5254;47.696;9.138;2022-08-02T07:36:38;6.45;;;2.78;;
10414;SDS011;5254;47.696;9.138;2022-08-02T07:39:03;4.65;;;2.80;;
10414;SDS011;5254;47.696;9.138;2022-08-02T07:41:29;3.80;;;2.60;;
10414;SDS011;5254;47.696;9.138;2022-08-02T07:43:55;4.30;;;2.60;;
10414;SDS011;5254;47.696;9.138;2022-08-02T07:46:20;4.43;;;2.67;;
10414;SDS011;5254;47.696;9.138;2022-08-02T07:48:46;4.40;;;2.42;;
10414;SDS011;5254;47.696;9.138;2022-08-02T07:51:13;5.25;;;2.63;;
10414;SDS011;5254;47.696;9.138;2022-08-02T07:53:39;4.10;;;2.72;;
10414;SDS011;5254;47.696;9.138;2022-08-02T07:56:04;3.33;;;2.20;;
10414;SDS011;5254;47.696;9.138;2022-08-02T07:58:30;4.95;;;2.67;;
10414;SDS011;5254;47.696;9.138;2022-08-02T08:00:56;5.32;;;2.58;;
10414;SDS011;5254;47.696;9.138;2022-08-02T08:03:22;5.72;;;2.70;;
10414;SDS011;5254;47.696;9.138;2022-08-02T08:05:47;5.05;;;2.83;;
10414;SDS011;5254;47.696;9.138;2022-08-02T08:08:13;3.70;;;2.38;;
10414;SDS011;5254;47.696;9.138;2022-08-02T08:10:39;4.00;;;2.53;;
10414;SDS011;5254;47.696;9.138;2022-08-02T08:13:05;4.55;;;2.50;;
10414;SDS011;5254;47.696;9.138;2022-08-02T08:15:31;4.18;;;2.40;;
10414;SDS011;5254;47.696;9.138;2022-08-02T08:17:57;4.00;;;2.35;;
10414;SDS011;5254;47.696;9.138;2022-08-02T08:20:23;4.80;;;2.53;;
10414;SDS011;5254;47.696;9.138;2022-08-02T08:22:48;3.60;;;2.38;;
10414;SDS011;5254;47.696;9.138;2022-08-02T08:25:14;3.05;;;1.98;;
10414;SDS011;5254;47.696;9.138;2022-08-02T08:27:47;4.88;;;2.40;;
10414;SDS011;5254;47.696;9.138;2022-08-02T08:30:14;4.88;;;2.40;;
10414;SDS011;5254;47.696;9.138;2022-08-02T08:32:40;5.10;;;2.30;;
10414;SDS011;5254;47.696;9.138;2022-08-02T08:35:06;4.05;;;2.20;;
10414;SDS011;5254;47.696;9.138;2022-08-02T08:37:33;3.67;;;2.47;;
10414;SDS011;5254;47.696;9.138;2022-08-02T08:39:59;3.35;;;2.28;;
10414;SDS011;5254;47.696;9.138;2022-08-02T08:42:25;3.65;;;2.30;;
10414;SDS011;5254;47.696;9.138;2022-08-02T08:44:51;4.10;;;2.13;;
10414;SDS011;5254;47.696;9.138;2022-08-02T08:47:19;3.13;;;1.83;;
10414;SDS011;5254;47.696;9.138;2022-08-02T08:49:47;2.83;;;1.83;;
10414;SDS011;5254;47.696;9.138;2022-08-02T08:52:18;2.30;;;1.70;;
10414;SDS011;5254;47.696;9.138;2022-08-02T08:54:48;3.95;;;2.13;;
10414;SDS011;5254;47.696;9.138;2022-08-02T08:57:14;4.00;;;2.17;;
10414;SDS011;5254;47.696;9.138;2022-08-02T08:59:42;2.90;;;1.90;;
10414;SDS011;5254;47.696;9.138;2022-08-02T09:02:10;3.40;;;1.88;;
10414;SDS011;5254;47.696;9.138;2022-08-02T09:04:36;3.80;;;2.17;;
10414;SDS011;5254;47.696;9.138;2022-08-02T09:07:02;4.88;;;2.38;;
10414;SDS011;5254;47.696;9.138;2022-08-02T09:09:27;3.10;;;2.10;;
10414;SDS011;5254;47.696;9.138;2022-08-02T09:11:53;3.25;;;2.05;;
10414;SDS011;5254;47.696;9.138;2022-08-02T09:14:25;4.10;;;2.40;;
10414;SDS011;5254;47.696;9.138;2022-08-02T09:17:06;3.05;;;2.03;;
10414;SDS011;5254;47.696;9.138;2022-08-02T09:19:34;4.38;;;2.42;;
10414;SDS011;5254;47.696;9.138;2022-08-02T09:22:02;3.42;;;2.30;;
10414;SDS011;5254;47.696;9.138;2022-08-02T09:24:29;3.97;;;2.08;;
10414;SDS011;5254;47.696;9.138;2022-08-02T09:27:12;4.93;;;2.33;;
10414;SDS011;5254;47.696;9.138;2022-08-02T09:29:40;3.45;;;2.30;;
10414;SDS011;5254;47.696;9.138;2022-08-02T09:32:09;3.72;;;2.35;;
10414;SDS011;5254;47.696;9.138;2022-08-02T09:34:48;3.20;;;2.20;;
10414;SDS011;5254;47.696;9.138;2022-08-02T09:39:51;5.07;;;2.30;;
10414;SDS011;5254;47.696;9.138;2022-08-02T09:42:18;3.00;;;2.05;;
10414;SDS011;5254;47.696;9.138;2022-08-02T09:44:57;3.85;;;2.20;;
10414;SDS011;5254;47.696;9.138;2022-08-02T09:47:24;3.38;;;2.22;;
10414;SDS011;5254;47.696;9.138;2022-08-02T09:49:51;3.78;;;2.10;;
10414;SDS011;5254;47.696;9.138;2022-08-02T09:52:26;4.35;;;2.20;;
10414;SDS011;5254;47.696;9.138;2022-08-02T09:54:52;4.13;;;2.15;;
10414;SDS011;5254;47.696;9.138;2022-08-02T09:57:28;3.55;;;2.10;;
10414;SDS011;5254;47.696;9.138;2022-08-02T09:59:55;3.20;;;2.10;;
10414;SDS011;5254;47.696;9.138;2022-08-02T10:02:21;3.17;;;2.08;;
10414;SDS011;5254;47.696;9.138;2022-08-02T10:04:47;3.13;;;1.90;;
10414;SDS011;5254;47.696;9.138;2022-08-02T10:07:14;4.05;;;2.20;;
10414;SDS011;5254;47.696;9.138;2022-08-02T10:09:41;3.45;;;2.10;;
10414;SDS011;5254;47.696;9.138;2022-08-02T10:12:09;3.35;;;2.20;;
10414;SDS011;5254;47.696;9.138;2022-08-02T10:14:36;3.80;;;2.33;;
10414;SDS011;5254;47.696;9.138;2022-08-02T10:17:02;3.78;;;2.20;;
10414;SDS011;5254;47.696;9.138;2022-08-02T10:19:31;3.67;;;2.28;;
10414;SDS011;5254;47.696;9.138;2022-08-02T10:22:03;3.42;;;2.33;;
10414;SDS011;5254;47.696;9.138;2022-08-02T10:24:31;4.40;;;2.40;;
10414;SDS011;5254;47.696;9.138;2022-08-02T10:27:00;4.22;;;2.45;;
10414;SDS011;5254;47.696;9.138;2022-08-02T10:29:35;4.65;;;2.58;;
10414;SDS011;5254;47.696;9.138;2022-08-02T10:32:06;4.28;;;2.47;;
10414;SDS011;5254;47.696;9.138;2022-08-02T10:34:44;4.13;;;2.65;;
10414;SDS011;5254;47.696;9.138;2022-08-02T10:37:13;3.55;;;2.40;;
10414;SDS011;5254;47.696;9.138;2022-08-02T10:39:41;4.68;;;2.60;;
10414;SDS011;5254;47.696;9.138;2022-08-02T10:42:08;3.63;;;2.70;;
10414;SDS011;5254;47.696;9.138;2022-08-02T10:44:35;4.65;;;2.78;;
10414;SDS011;5254;47.696;9.138;2022-08-02T10:52:27;4.45;;;2.63;;
10414;SDS011;5254;47.696;9.138;2022-08-02T10:54:55;5.18;;;2.72;;
10414;SDS011;5254;47.696;9.138;2022-08-02T11:00:00;4.05;;;2.70;;
10414;SDS011;5254;47.696;9.138;2022-08-02T11:05:06;5.30;;;3.10;;
10414;SDS011;5254;47.696;9.138;2022-08-02T11:07:55;3.78;;;2.80;;
10414;SDS011;5254;47.696;9.138;2022-08-02T11:10:37;4.50;;;2.60;;
10414;SDS011;5254;47.696;9.138;2022-08-02T11:15:30;4.43;;;2.83;;
10414;SDS011;5254;47.696;9.138;2022-08-02T11:18:17;4.30;;;2.70;;
10414;SDS011;5254;47.696;9.138;2022-08-02T11:20:44;4.50;;;2.72;;
10414;SDS011;5254;47.696;9.138;2022-08-02T11:26:00;3.95;;;2.83;;
10414;SDS011;5254;47.696;9.138;2022-08-02T11:28:29;4.43;;;3.08;;
10414;SDS011;5254;47.696;9.138;2022-08-02T11:30:56;4.32;;;2.90;;
10414;SDS011;5254;47.696;9.138;2022-08-02T11:33:30;4.57;;;2.88;;
10414;SDS011;5254;47.696;9.138;2022-08-02T11:36:04;4.38;;;2.80;;
10414;SDS011;5254;47.696;9.138;2022-08-02T11:38:31;4.45;;;2.83;;
10414;SDS011;5254;47.696;9.138;2022-08-02T11:40:57;4.35;;;2.40;;
10414;SDS011;5254;47.696;9.138;2022-08-02T11:43:24;4.60;;;2.83;;
10414;SDS011;5254;47.696;9.138;2022-08-02T11:45:55;4.60;;;3.10;;
10414;SDS011;5254;47.696;9.138;2022-08-02T11:48:28;4.55;;;2.75;;
10414;SDS011;5254;47.696;9.138;2022-08-02T11:51:05;4.65;;;3.22;;
10414;SDS011;5254;47.696;9.138;2022-08-02T11:56:14;4.88;;;2.70;;
10414;SDS011;5254;47.696;9.138;2022-08-02T11:58:58;4.38;;;2.60;;
10414;SDS011;5254;47.696;9.138;2022-08-02T12:01:35;4.63;;;3.05;;
10414;SDS011;5254;47.696;9.138;2022-08-02T12:04:04;5.35;;;2.90;;
10414;SDS011;5254;47.696;9.138;2022-08-02T12:06:31;4.20;;;2.55;;
10414;SDS011;5254;47.696;9.138;2022-08-02T12:09:04;4.45;;;2.97;;
10414;SDS011;5254;47.696;9.138;2022-08-02T12:11:32;5.47;;;3.03;;
10414;SDS011;5254;47.696;9.138;2022-08-02T12:13:59;4.38;;;3.00;;
10414;SDS011;5254;47.696;9.138;2022-08-02T12:16:31;5.10;;;2.90;;
10414;SDS011;5254;47.696;9.138;2022-08-02T12:19:20;4.80;;;2.90;;
10414;SDS011;5254;47.696;9.138;2022-08-02T12:24:42;3.58;;;2.72;;
10414;SDS011;5254;47.696;9.138;2022-08-02T12:27:25;5.00;;;2.55;;
10414;SDS011;5254;47.696;9.138;2022-08-02T12:29:57;4.68;;;2.95;;
10414;SDS011;5254;47.696;9.138;2022-08-02T12:32:25;6.22;;;3.13;;
10414;SDS011;5254;47.696;9.138;2022-08-02T12:37:47;4.18;;;2.70;;
10414;SDS011;5254;47.696;9.138;2022-08-02T12:40:29;4.47;;;2.88;;
10414;SDS011;5254;47.696;9.138;2022-08-02T12:42:57;4.40;;;2.60;;
10414;SDS011;5254;47.696;9.138;2022-08-02T12:45:29;4.93;;;3.13;;
10414;SDS011;5254;47.696;9.138;2022-08-02T12:47:57;6.32;;;3.10;;
10414;SDS011;5254;47.696;9.138;2022-08-02T12:50:35;3.85;;;2.55;;
10414;SDS011;5254;47.696;9.138;2022-08-02T12:53:16;4.43;;;2.70;;
10414;SDS011;5254;47.696;9.138;2022-08-02T12:55:46;3.95;;;2.50;;
10414;SDS011;5254;47.696;9.138;2022-08-02T12:58:12;4.47;;;2.80;;
10414;SDS011;5254;47.696;9.138;2022-08-02T13:00:38;3.78;;;2.20;;
10414;SDS011;5254;47.696;9.138;2022-08-02T13:03:04;4.97;;;2.72;;
10414;SDS011;5254;47.696;9.138;2022-08-02T13:05:33;4.60;;;2.60;;
10414;SDS011;5254;47.696;9.138;2022-08-02T13:07:59;3.72;;;2.53;;
10414;SDS011;5254;47.696;9.138;2022-08-02T13:10:27;4.10;;;2.50;;
10414;SDS011;5254;47.696;9.138;2022-08-02T13:12:53;3.42;;;2.55;;
10414;SDS011;5254;47.696;9.138;2022-08-02T13:15:19;4.20;;;2.60;;
10414;SDS011;5254;47.696;9.138;2022-08-02T13:17:46;4.80;;;2.60;;
10414;SDS011;5254;47.696;9.138;2022-08-02T13:20:11;4.60;;;2.78;;
10414;SDS011;5254;47.696;9.138;2022-08-02T13:22:38;3.72;;;2.22;;
10414;SDS011;5254;47.696;9.138;2022-08-02T13:25:05;4.18;;;2.70;;
10414;SDS011;5254;47.696;9.138;2022-08-02T13:27:31;3.67;;;2.38;;
10414;SDS011;5254;47.696;9.138;2022-08-02T13:29:58;4.65;;;2.63;;
10414;SDS011;5254;47.696;9.138;2022-08-02T13:32:25;3.95;;;2.53;;
10414;SDS011;5254;47.696;9.138;2022-08-02T13:34:55;5.13;;;2.53;;
10414;SDS011;5254;47.696;9.138;2022-08-02T13:37:21;3.90;;;2.60;;
10414;SDS011;5254;47.696;9.138;2022-08-02T13:39:47;4.18;;;2.60;;
10414;SDS011;5254;47.696;9.138;2022-08-02T13:42:13;4.55;;;2.78;;
10414;SDS011;5254;47.696;9.138;2022-08-02T13:44:39;3.92;;;2.60;;
10414;SDS011;5254;47.696;9.138;2022-08-02T13:47:05;3.92;;;2.40;;
10414;SDS011;5254;47.696;9.138;2022-08-02T13:49:32;4.68;;;2.72;;
10414;SDS011;5254;47.696;9.138;2022-08-02T13:51:58;3.92;;;2.70;;
10414;SDS011;5254;47.696;9.138;2022-08-02T13:54:23;3.55;;;2.40;;
10414;SDS011;5254;47.696;9.138;2022-08-02T13:56:49;4.80;;;2.65;;
10414;SDS011;5254;47.696;9.138;2022-08-02T13:59:15;5.10;;;2.60;;
10414;SDS011;5254;47.696;9.138;2022-08-02T14:01:40;3.72;;;2.65;;
10414;SDS011;5254;47.696;9.138;2022-08-02T14:04:06;4.85;;;2.22;;
10414;SDS011;5254;47.696;9.138;2022-08-02T14:06:31;4.93;;;2.30;;
10414;SDS011;5254;47.696;9.138;2022-08-02T14:08:57;3.40;;;2.38;;
10414;SDS011;5254;47.696;9.138;2022-08-02T14:11:23;4.15;;;2.47;;
10414;SDS011;5254;47.696;9.138;2022-08-02T14:13:49;5.03;;;2.55;;
10414;SDS011;5254;47.696;9.138;2022-08-02T14:16:14;3.97;;;2.65;;
10414;SDS011;5254;47.696;9.138;2022-08-02T14:18:40;4.35;;;2.40;;
10414;SDS011;5254;47.696;9.138;2022-08-02T14:21:06;4.70;;;2.63;;
10414;SDS011;5254;47.696;9.138;2022-08-02T14:23:31;3.88;;;2.40;;
10414;SDS011;5254;47.696;9.138;2022-08-02T14:25:57;3.50;;;1.90;;
10414;SDS011;5254;47.696;9.138;2022-08-02T14:28:23;3.50;;;2.20;;
10414;SDS011;5254;47.696;9.138;2022-08-02T14:30:49;4.20;;;2.17;;
10414;SDS011;5254;47.696;9.138;2022-08-02T14:33:15;3.47;;;2.10;;
10414;SDS011;5254;47.696;9.138;2022-08-02T14:35:42;3.53;;;2.28;;
10414;SDS011;5254;47.696;9.138;2022-08-02T14:38:08;3.92;;;2.70;;
10414;SDS011;5254;47.696;9.138;2022-08-02T14:40:34;2.80;;;2.15;;
10414;SDS011;5254;47.696;9.138;2022-08-02T14:43:00;3.05;;;2.05;;
10414;SDS011;5254;47.696;9.138;2022-08-02T14:45:26;2.83;;;2.20;;
10414;SDS011;5254;47.696;9.138;2022-08-02T14:47:53;3.42;;;2.28;;
10414;SDS011;5254;47.696;9.138;2022-08-02T14:50:20;3.53;;;2.25;;
10414;SDS011;5254;47.696;9.138;2022-08-02T14:52:46;4.07;;;2.42;;
10414;SDS011;5254;47.696;9.138;2022-08-02T14:55:13;6.68;;;2.42;;
10414;SDS011;5254;47.696;9.138;2022-08-02T14:57:39;3.78;;;2.30;;
10414;SDS011;5254;47.696;9.138;2022-08-02T15:00:05;3.63;;;2.30;;
10414;SDS011;5254;47.696;9.138;2022-08-02T15:02:32;3.97;;;2.30;;
10414;SDS011;5254;47.696;9.138;2022-08-02T15:04:58;3.67;;;2.50;;
10414;SDS011;5254;47.696;9.138;2022-08-02T15:07:23;3.25;;;2.13;;
10414;SDS011;5254;47.696;9.138;2022-08-02T15:09:49;3.25;;;2.20;;
10414;SDS011;5254;47.696;9.138;2022-08-02T15:12:15;3.75;;;2.20;;
10414;SDS011;5254;47.696;9.138;2022-08-02T15:14:41;4.03;;;2.50;;
10414;SDS011;5254;47.696;9.138;2022-08-02T15:17:07;3.55;;;2.40;;
10414;SDS011;5254;47.696;9.138;2022-08-02T15:19:33;4.35;;;2.25;;
10414;SDS011;5254;47.696;9.138;2022-08-02T15:21:59;4.90;;;2.35;;
10414;SDS011;5254;47.696;9.138;2022-08-02T15:24:25;4.78;;;2.55;;
10414;SDS011;5254;47.696;9.138;2022-08-02T15:26:51;3.80;;;2.33;;
10414;SDS011;5254;47.696;9.138;2022-08-02T15:29:18;4.40;;;2.30;;
10414;SDS011;5254;47.696;9.138;2022-08-02T15:31:44;3.00;;;2.05;;
10414;SDS011;5254;47.696;9.138;2022-08-02T15:34:11;3.35;;;2.15;;
10414;SDS011;5254;47.696;9.138;2022-08-02T15:36:37;2.22;;;1.90;;
10414;SDS011;5254;47.696;9.138;2022-08-02T15:39:03;3.35;;;2.10;;
10414;SDS011;5254;47.696;9.138;2022-08-02T15:41:29;3.80;;;2.47;;
10414;SDS011;5254;47.696;9.138;2022-08-02T15:43:55;3.53;;;2.30;;
10414;SDS011;5254;47.696;9.138;2022-08-02T15:46:21;3.95;;;2.15;;
10414;SDS011;5254;47.696;9.138;2022-08-02T15:48:46;2.53;;;2.05;;
10414;SDS011;5254;47.696;9.138;2022-08-02T15:51:12;3.97;;;2.17;;
10414;SDS011;5254;47.696;9.138;2022-08-02T15:53:38;3.72;;;1.90;;